GBYD/BJL METAR and TAF weather

Enter ICAO airport designator
Station Type Date Time Source
GBYD METAR 2019/10/16 19:00 UTC NOAA

GBYD 161900Z 34005KT 9999 FEW012 28/24 Q1011


Station Type Date Time Source
GBYD Decoded METAR 2019/10/16 19:00 UTC NOAA

Banjul / Yundum, Gambia, The (GBYD) 13-21N 016-48W 36M
Oct 16, 2019 - 03:00 PM EDT / 2019.10.16 1900 UTC
Wind: from the NNW (340 degrees) at 6 MPH (5 KT):0
Visibility: greater than 7 mile(s):0
Sky conditions: mostly clear
Temperature: 82 F (28 C)
Dew Point: 75 F (24 C)
Relative Humidity: 78%
Pressure (altimeter): 29.85 in. Hg (1011 hPa)
ob: GBYD 161900Z 34005KT 9999 FEW012 28/24 Q1011
cycle: 19

Station Type Date Time Source
GBYD TAF 2019/10/16 18:24 UTC NOAA

TAF TAF GBYD 161730Z 1618/1724 30005KT 9999 SCT013

Example: see airport list